createdAt,value
2018-02-20T00:01:22.953Z,74.11
2018-02-20T00:03:51.351Z,73.61
2018-02-20T00:06:19.800Z,75.22
2018-02-20T00:08:48.204Z,74.08
2018-02-20T00:11:16.653Z,73.98
2018-02-20T00:13:45.077Z,74.98
2018-02-20T00:16:13.495Z,74.17
2018-02-20T00:18:41.922Z,74.08
2018-02-20T00:21:10.343Z,74.16
2018-02-20T00:23:38.811Z,74.10
2018-02-20T00:26:07.292Z,74.16
2018-02-20T00:28:35.731Z,74.14
2018-02-20T00:31:04.172Z,74.05
2018-02-20T00:33:32.613Z,73.75
2018-02-20T00:36:01.017Z,74.44
2018-02-20T00:38:29.476Z,74.51
2018-02-20T00:40:57.881Z,73.98
2018-02-20T00:43:26.320Z,74.02
2018-02-20T00:45:54.716Z,73.83
2018-02-20T00:48:23.168Z,74.23
2018-02-20T00:50:51.605Z,74.00
2018-02-20T00:53:20.061Z,73.92
2018-02-20T00:55:48.457Z,74.04
2018-02-20T00:58:16.901Z,73.51
2018-02-20T01:00:45.296Z,73.88
2018-02-20T01:03:13.796Z,73.43
2018-02-20T01:05:42.238Z,74.13
2018-02-20T01:08:10.682Z,73.87
2018-02-20T01:10:39.098Z,73.94
2018-02-20T01:13:07.536Z,73.92
2018-02-20T01:15:36.010Z,74.07
2018-02-20T01:18:04.481Z,74.36
2018-02-20T01:20:32.886Z,73.95
2018-02-20T01:23:01.337Z,74.00
2018-02-20T01:25:29.732Z,73.59
2018-02-20T01:27:58.172Z,73.90
2018-02-20T01:30:26.600Z,73.42
2018-02-20T01:32:54.997Z,73.60
2018-02-20T01:35:23.440Z,73.58
2018-02-20T01:37:51.849Z,73.59
2018-02-20T01:40:20.302Z,73.78
2018-02-20T01:42:48.700Z,73.76
2018-02-20T01:45:17.138Z,73.74
2018-02-20T01:47:45.552Z,73.57
2018-02-20T01:50:13.988Z,73.43
2018-02-20T01:52:42.455Z,73.48
2018-02-20T01:55:10.892Z,73.35
2018-02-20T01:57:39.403Z,73.60
2018-02-20T02:00:07.879Z,73.22
2018-02-20T02:02:36.422Z,74.23
2018-02-20T02:05:04.912Z,73.59
2018-02-20T02:07:33.402Z,73.49
2018-02-20T02:10:01.940Z,73.20
2018-02-20T02:12:30.450Z,72.96
2018-02-20T02:14:58.967Z,73.20
2018-02-20T02:17:27.467Z,73.29
2018-02-20T02:19:55.973Z,73.22
2018-02-20T02:22:24.477Z,73.09
2018-02-20T02:24:52.942Z,73.25
2018-02-20T02:27:21.462Z,73.08
2018-02-20T02:29:49.966Z,73.43
2018-02-20T02:32:18.522Z,72.81
2018-02-20T02:34:46.983Z,73.04
2018-02-20T02:37:15.522Z,73.05
2018-02-20T02:39:44.000Z,72.75
2018-02-20T02:42:12.489Z,72.65
2018-02-20T02:44:40.966Z,72.90
2018-02-20T02:47:09.479Z,72.70
2018-02-20T02:49:37.995Z,72.72
2018-02-20T02:52:06.463Z,72.52
2018-02-20T02:54:35.042Z,72.87
2018-02-20T02:57:03.503Z,72.73
2018-02-20T02:59:31.971Z,72.78
2018-02-20T03:02:00.474Z,72.56
2018-02-20T03:04:29.006Z,72.34
2018-02-20T03:06:57.516Z,72.44
2018-02-20T03:09:26.006Z,72.44
2018-02-20T03:11:54.473Z,72.66
2018-02-20T03:14:22.978Z,72.97
2018-02-20T03:16:51.488Z,72.60
2018-02-20T03:19:19.997Z,72.29
2018-02-20T03:21:48.468Z,72.18
2018-02-20T03:24:17.008Z,72.15
2018-02-20T03:26:45.494Z,72.24
2018-02-20T03:29:13.954Z,72.34
2018-02-20T03:31:42.461Z,72.22
2018-02-20T03:34:10.942Z,72.17
2018-02-20T03:36:39.478Z,72.04
2018-02-20T03:39:07.946Z,72.34
2018-02-20T03:41:36.440Z,72.43
2018-02-20T03:44:04.941Z,72.34
2018-02-20T03:46:33.488Z,72.38
2018-02-20T03:49:01.982Z,72.43
2018-02-20T03:51:30.596Z,72.43
2018-02-20T03:53:59.063Z,72.30
2018-02-20T03:56:27.534Z,72.65
2018-02-20T03:58:56.046Z,72.54
2018-02-20T04:01:24.547Z,72.58
2018-02-20T04:03:53.024Z,72.28
2018-02-20T04:06:21.546Z,72.21
2018-02-20T04:08:50.010Z,72.62
2018-02-20T04:11:18.506Z,72.65
2018-02-20T04:13:47.006Z,72.62
2018-02-20T04:16:15.530Z,72.93
2018-02-20T04:18:44.018Z,72.82
2018-02-20T04:21:12.521Z,72.54
2018-02-20T04:23:41.045Z,72.47
2018-02-20T04:26:09.503Z,72.29
2018-02-20T04:28:37.955Z,72.41
2018-02-20T04:31:06.472Z,72.35
2018-02-20T04:33:34.998Z,72.25
2018-02-20T04:36:03.510Z,72.44
2018-02-20T04:38:31.970Z,72.42
2018-02-20T04:41:00.451Z,72.53
2018-02-20T04:43:28.950Z,72.36
2018-02-20T04:45:57.409Z,72.38
2018-02-20T04:48:25.907Z,72.38
2018-02-20T04:50:54.378Z,72.40
2018-02-20T04:53:22.877Z,72.39
2018-02-20T04:55:51.336Z,72.43
2018-02-20T04:58:19.838Z,72.71
2018-02-20T05:00:48.329Z,72.60
2018-02-20T05:03:16.826Z,72.51
2018-02-20T05:05:45.285Z,72.57
2018-02-20T05:08:13.745Z,72.39
2018-02-20T05:10:42.237Z,72.40
2018-02-20T05:13:10.734Z,72.56
2018-02-20T05:15:39.237Z,72.31
2018-02-20T05:18:07.706Z,72.66
2018-02-20T05:20:36.209Z,72.23
2018-02-20T05:23:04.706Z,72.31
2018-02-20T05:25:33.207Z,72.02
2018-02-20T05:28:01.687Z,72.11
2018-02-20T05:30:30.195Z,72.16
2018-02-20T05:32:59.391Z,72.08
2018-02-20T05:35:27.845Z,71.93
2018-02-20T05:37:56.357Z,72.21
2018-02-20T05:40:24.818Z,72.28
2018-02-20T05:42:53.338Z,72.21
2018-02-20T05:45:21.813Z,72.16
2018-02-20T05:47:50.297Z,73.04
2018-02-20T05:50:18.799Z,72.50
2018-02-20T05:52:47.279Z,72.33
2018-02-20T05:55:15.775Z,72.34
2018-02-20T05:57:44.269Z,72.34
2018-02-20T06:00:12.802Z,72.37
2018-02-20T06:02:41.270Z,72.47
2018-02-20T06:05:09.730Z,72.42
2018-02-20T06:07:38.233Z,72.73
2018-02-20T06:10:06.744Z,72.91
2018-02-20T06:12:35.214Z,73.46
2018-02-20T06:15:03.716Z,73.49
2018-02-20T06:17:32.222Z,72.99
2018-02-20T06:20:00.754Z,73.00
2018-02-20T06:22:29.222Z,72.61
2018-02-20T06:24:57.687Z,72.91
2018-02-20T06:27:26.190Z,72.83
2018-02-20T06:29:54.655Z,73.76
2018-02-20T06:32:23.139Z,73.18
2018-02-20T06:34:51.676Z,73.15
2018-02-20T06:37:20.145Z,73.12
2018-02-20T06:39:48.690Z,73.20
2018-02-20T06:42:17.202Z,72.67
2018-02-20T06:44:45.774Z,72.80
2018-02-20T06:47:14.243Z,72.86
2018-02-20T06:49:42.776Z,72.85
2018-02-20T06:52:11.255Z,72.67
2018-02-20T06:54:39.762Z,72.82
2018-02-20T06:57:08.240Z,73.10
2018-02-20T06:59:36.746Z,72.89
2018-02-20T07:02:05.268Z,72.97
2018-02-20T07:04:33.920Z,73.11
2018-02-20T07:07:02.379Z,73.13
2018-02-20T07:09:30.850Z,72.63
2018-02-20T07:11:59.373Z,72.61
2018-02-20T07:14:27.846Z,72.61
2018-02-20T07:16:56.365Z,72.37
2018-02-20T07:19:24.844Z,72.50
2018-02-20T07:21:53.319Z,72.55
2018-02-20T07:24:21.803Z,72.54
2018-02-20T07:26:50.269Z,72.57
2018-02-20T07:29:18.798Z,72.47
2018-02-20T07:31:47.278Z,72.74
2018-02-20T07:34:15.754Z,72.56
2018-02-20T07:36:44.280Z,72.31
2018-02-20T07:39:12.790Z,72.25
2018-02-20T07:41:41.261Z,72.31
2018-02-20T07:44:09.755Z,72.13
2018-02-20T07:46:38.230Z,72.15
2018-02-20T07:49:06.699Z,71.81
2018-02-20T07:51:35.210Z,72.02
2018-02-20T07:54:03.723Z,72.03
2018-02-20T07:56:32.229Z,71.75
2018-02-20T07:59:00.713Z,71.57
2018-02-20T08:01:29.245Z,71.36
2018-02-20T08:03:57.794Z,71.50
2018-02-20T08:06:26.243Z,71.17
2018-02-20T08:08:54.744Z,70.98
2018-02-20T08:11:23.214Z,71.51
2018-02-20T08:13:51.726Z,71.08
2018-02-20T08:16:20.210Z,70.68
2018-02-20T08:18:48.718Z,70.72
2018-02-20T08:21:17.222Z,70.58
2018-02-20T08:23:45.747Z,70.37
2018-02-20T08:26:14.250Z,70.18
2018-02-20T08:28:42.807Z,70.24
2018-02-20T08:31:11.270Z,69.81
2018-02-20T08:33:39.746Z,70.17
2018-02-20T08:36:08.261Z,70.11
2018-02-20T08:38:36.722Z,69.63
2018-02-20T08:41:05.231Z,69.63
2018-02-20T08:43:33.754Z,69.21
2018-02-20T08:46:02.249Z,69.24
2018-02-20T08:48:30.827Z,68.88
2018-02-20T08:50:59.319Z,69.20
2018-02-20T08:53:27.788Z,68.92
2018-02-20T08:55:56.457Z,68.69
2018-02-20T08:58:24.932Z,68.83
2018-02-20T09:00:53.394Z,68.49
2018-02-20T09:03:21.906Z,68.94
2018-02-20T09:05:50.369Z,68.86
2018-02-20T09:08:18.886Z,68.24
2018-02-20T09:10:47.335Z,68.38
2018-02-20T09:13:15.834Z,68.15
2018-02-20T09:15:44.318Z,68.23
2018-02-20T09:18:12.808Z,68.23
2018-02-20T09:20:41.274Z,68.11
2018-02-20T09:23:09.815Z,67.41
2018-02-20T09:25:38.288Z,67.58
2018-02-20T09:28:06.790Z,67.96
2018-02-20T09:30:35.336Z,67.79
2018-02-20T09:33:03.806Z,67.60
2018-02-20T09:35:32.421Z,67.86
2018-02-20T09:38:00.925Z,67.17
2018-02-20T09:40:29.427Z,67.40
2018-02-20T09:42:57.930Z,67.12
2018-02-20T09:45:26.438Z,67.05
2018-02-20T09:47:54.934Z,67.63
2018-02-20T09:50:23.402Z,67.31
2018-02-20T09:52:51.909Z,66.97
2018-02-20T09:55:20.385Z,66.65
2018-02-20T09:57:48.894Z,66.18
2018-02-20T10:00:17.364Z,65.89
2018-02-20T10:02:45.875Z,66.25
2018-02-20T10:05:14.409Z,66.29
2018-02-20T10:07:42.886Z,65.87
2018-02-20T10:10:11.358Z,66.34
2018-02-20T10:12:39.876Z,66.37
2018-02-20T10:15:08.362Z,65.80
2018-02-20T10:17:36.898Z,65.41
2018-02-20T10:20:05.366Z,66.11
2018-02-20T10:22:33.856Z,66.50
2018-02-20T10:25:02.386Z,66.49
2018-02-20T10:27:30.914Z,66.35
2018-02-20T10:29:59.378Z,65.55
2018-02-20T10:32:27.878Z,65.76
2018-02-20T10:34:56.448Z,65.49
2018-02-20T10:37:24.972Z,65.38
2018-02-20T10:39:53.461Z,64.85
2018-02-20T10:42:21.966Z,65.04
2018-02-20T10:44:50.609Z,65.08
2018-02-20T10:47:19.098Z,64.89
2018-02-20T10:49:47.626Z,64.06
2018-02-20T10:52:16.118Z,64.86
2018-02-20T10:54:44.575Z,64.72
2018-02-20T10:57:13.070Z,64.71
2018-02-20T10:59:41.577Z,64.56
2018-02-20T11:02:10.074Z,63.99
2018-02-20T11:04:38.578Z,64.44
2018-02-20T11:07:07.046Z,64.33
2018-02-20T11:09:35.566Z,64.00
2018-02-20T11:12:04.026Z,63.87
2018-02-20T11:14:32.467Z,63.77
2018-02-20T11:17:00.953Z,63.64
2018-02-20T11:19:29.445Z,63.42
2018-02-20T11:21:57.954Z,63.56
2018-02-20T11:24:26.414Z,63.90
2018-02-20T11:26:54.873Z,63.79
2018-02-20T11:29:23.366Z,63.92
2018-02-20T11:31:51.883Z,63.11
2018-02-20T11:34:20.352Z,63.45
2018-02-20T11:36:48.901Z,63.34
2018-02-20T11:39:17.386Z,63.80
2018-02-20T11:41:45.894Z,63.62
2018-02-20T11:44:14.354Z,64.05
2018-02-20T11:46:42.814Z,63.85
2018-02-20T11:49:11.318Z,63.78
2018-02-20T11:51:39.787Z,64.27
2018-02-20T11:54:08.302Z,64.08
2018-02-20T11:56:36.806Z,63.96
2018-02-20T11:59:05.274Z,63.98
2018-02-20T12:01:33.762Z,64.12
2018-02-20T12:04:02.313Z,64.11
2018-02-20T12:06:30.793Z,64.27
2018-02-20T12:08:59.258Z,64.02
2018-02-20T12:11:27.757Z,64.32
2018-02-20T12:13:56.264Z,64.36
2018-02-20T12:16:24.753Z,64.43
2018-02-20T12:18:53.227Z,64.29
2018-02-20T12:21:21.722Z,64.14
2018-02-20T12:23:50.226Z,64.21
2018-02-20T12:26:18.722Z,63.99
2018-02-20T12:28:47.193Z,64.17
2018-02-20T12:31:15.693Z,63.95
2018-02-20T12:33:44.178Z,63.84
2018-02-20T12:36:12.630Z,63.90
2018-02-20T12:38:41.151Z,64.10
2018-02-20T12:41:09.626Z,64.02
2018-02-20T12:43:38.107Z,63.72
2018-02-20T12:46:06.602Z,64.03
2018-02-20T12:48:35.091Z,64.23
2018-02-20T12:51:03.563Z,64.32
2018-02-20T12:53:32.069Z,64.29
2018-02-20T12:56:00.599Z,64.34
2018-02-20T12:58:29.158Z,64.53
2018-02-20T13:00:57.629Z,64.38
2018-02-20T13:03:26.092Z,64.62
2018-02-20T13:05:54.579Z,64.41
2018-02-20T13:08:23.083Z,64.47
2018-02-20T13:10:51.586Z,64.39
2018-02-20T13:13:20.092Z,64.74
2018-02-20T13:15:48.599Z,64.56
2018-02-20T13:18:17.110Z,64.74
2018-02-20T13:20:45.605Z,65.52
2018-02-20T13:23:14.084Z,65.24
2018-02-20T13:25:42.602Z,65.38
2018-02-20T13:28:11.059Z,65.73
2018-02-20T13:30:39.566Z,65.85
2018-02-20T13:33:08.058Z,65.61
2018-02-20T13:35:36.521Z,65.40
2018-02-20T13:38:05.010Z,66.03
2018-02-20T13:40:33.509Z,65.92
2018-02-20T13:43:01.980Z,66.35
2018-02-20T13:45:30.485Z,66.37
2018-02-20T13:47:59.750Z,66.19
2018-02-20T13:50:28.195Z,66.43
2018-02-20T13:52:56.722Z,66.39
2018-02-20T13:55:25.229Z,66.79
2018-02-20T13:57:53.682Z,66.87
2018-02-20T14:00:22.137Z,66.74
2018-02-20T14:02:50.637Z,67.42
2018-02-20T14:05:19.118Z,66.86
2018-02-20T14:07:47.637Z,67.10
2018-02-20T14:10:16.090Z,67.13
2018-02-20T14:12:44.607Z,67.24
2018-02-20T14:15:13.084Z,67.38
2018-02-20T14:17:41.578Z,67.73
2018-02-20T14:20:10.078Z,67.50
2018-02-20T14:22:38.543Z,67.94
2018-02-20T14:25:07.028Z,67.62
2018-02-20T14:27:35.498Z,67.62
2018-02-20T14:30:04.059Z,67.62
2018-02-20T14:32:32.526Z,67.56
2018-02-20T14:35:00.982Z,67.67
2018-02-20T14:37:29.478Z,67.87
2018-02-20T14:39:57.977Z,68.40
2018-02-20T14:42:26.470Z,68.01
2018-02-20T14:44:54.990Z,68.28
2018-02-20T14:47:23.518Z,68.61
2018-02-20T14:49:52.036Z,69.19
2018-02-20T14:52:20.559Z,68.83
2018-02-20T14:54:49.019Z,68.26
2018-02-20T14:57:17.547Z,68.43
2018-02-20T14:59:46.050Z,68.50
2018-02-20T15:02:14.550Z,68.62
2018-02-20T15:04:43.069Z,68.51
2018-02-20T15:07:11.542Z,68.11
2018-02-20T15:09:40.106Z,69.08
2018-02-20T15:12:08.613Z,68.59
2018-02-20T15:14:37.153Z,69.03
2018-02-20T15:17:05.606Z,68.99
2018-02-20T15:19:34.071Z,68.79
2018-02-20T15:22:02.589Z,68.64
2018-02-20T15:24:31.060Z,69.51
2018-02-20T15:26:59.576Z,69.23
2018-02-20T15:29:28.061Z,69.26
2018-02-20T15:31:56.522Z,69.47
2018-02-20T15:34:25.003Z,69.55
2018-02-20T15:36:53.466Z,69.68
2018-02-20T15:39:21.984Z,69.01
2018-02-20T15:41:50.442Z,69.51
2018-02-20T15:44:18.943Z,69.17
2018-02-20T15:46:47.443Z,68.99
2018-02-20T15:49:15.952Z,69.17
2018-02-20T15:51:44.417Z,69.13
2018-02-20T15:54:12.922Z,69.27
2018-02-20T15:56:41.454Z,68.84
2018-02-20T15:59:09.902Z,69.02
2018-02-20T16:01:38.399Z,68.92
2018-02-20T16:04:06.894Z,69.37
2018-02-20T16:06:35.394Z,69.24
2018-02-20T16:09:03.936Z,69.23
2018-02-20T16:11:32.418Z,69.35
2018-02-20T16:14:06.483Z,69.22
2018-02-20T16:16:35.023Z,69.69
2018-02-20T16:19:03.501Z,69.19
2018-02-20T16:21:31.958Z,69.34
2018-02-20T16:24:00.458Z,70.29
2018-02-20T16:26:29.002Z,69.76
2018-02-20T16:28:57.466Z,69.90
2018-02-20T16:31:25.923Z,69.34
2018-02-20T16:33:54.417Z,69.32
2018-02-20T16:36:22.875Z,69.26
2018-02-20T16:38:51.373Z,69.23
2018-02-20T16:41:19.830Z,69.31
2018-02-20T16:43:48.322Z,69.34
2018-02-20T16:46:16.814Z,69.56
2018-02-20T16:48:45.274Z,69.33
2018-02-20T16:51:13.770Z,69.69
2018-02-20T16:53:42.208Z,69.45
2018-02-20T16:56:10.702Z,69.11
2018-02-20T16:58:39.162Z,69.33
2018-02-20T17:01:07.674Z,69.32
2018-02-20T17:03:36.138Z,69.20
2018-02-20T17:06:04.598Z,69.81
2018-02-20T17:08:33.102Z,70.02
2018-02-20T17:11:01.576Z,69.65
2018-02-20T17:13:30.114Z,69.52
2018-02-20T17:15:58.624Z,69.57
2018-02-20T17:18:27.142Z,70.12
2018-02-20T17:20:55.602Z,69.47
2018-02-20T17:23:24.062Z,69.27
2018-02-20T17:25:52.562Z,69.41
2018-02-20T17:28:21.022Z,69.61
2018-02-20T17:30:49.528Z,69.30
2018-02-20T17:33:17.986Z,69.90
2018-02-20T17:35:46.489Z,70.05
2018-02-20T17:38:14.950Z,70.34
2018-02-20T17:40:43.458Z,69.47
2018-02-20T17:43:11.976Z,69.32
2018-02-20T17:45:40.437Z,70.11
2018-02-20T17:48:08.989Z,70.15
2018-02-20T17:50:37.474Z,70.02
2018-02-20T17:53:05.931Z,70.37
2018-02-20T17:55:34.427Z,70.05
2018-02-20T17:58:02.887Z,70.45
2018-02-20T18:00:31.390Z,70.74
2018-02-20T18:02:59.847Z,70.12
2018-02-20T18:05:28.401Z,70.11
2018-02-20T18:07:56.858Z,70.25
2018-02-20T18:10:25.354Z,70.15
2018-02-20T18:12:53.858Z,70.61
2018-02-20T18:15:22.355Z,70.53
2018-02-20T18:17:50.814Z,70.92
2018-02-20T18:20:19.306Z,71.65
2018-02-20T18:22:47.805Z,70.59
2018-02-20T18:25:16.298Z,71.05
2018-02-20T18:27:44.794Z,70.90
2018-02-20T18:30:13.250Z,71.26
2018-02-20T18:32:41.742Z,72.15
2018-02-20T18:35:10.198Z,71.66
2018-02-20T18:37:38.692Z,71.27
2018-02-20T18:40:07.165Z,71.05
2018-02-20T18:42:35.666Z,71.33
2018-02-20T18:45:04.130Z,71.21
2018-02-20T18:47:32.635Z,71.59
2018-02-20T18:50:01.108Z,71.15
2018-02-20T18:52:29.606Z,71.76
2018-02-20T18:54:58.091Z,71.40
2018-02-20T18:57:26.578Z,71.94
2018-02-20T18:59:55.115Z,71.52
2018-02-20T19:02:23.573Z,71.53
2018-02-20T19:04:52.038Z,71.56
2018-02-20T19:07:20.543Z,71.59
2018-02-20T19:09:49.002Z,71.15
2018-02-20T19:12:17.490Z,71.87
2018-02-20T19:14:45.967Z,71.51
2018-02-20T19:17:14.470Z,72.27
2018-02-20T19:19:42.944Z,72.14
2018-02-20T19:22:11.407Z,72.48
2018-02-20T19:24:39.914Z,72.68
2018-02-20T19:27:08.384Z,72.49
2018-02-20T19:29:36.877Z,72.41
2018-02-20T19:32:05.377Z,72.57
2018-02-20T19:34:33.867Z,72.67
2018-02-20T19:37:02.364Z,72.83
2018-02-20T19:39:30.846Z,72.95
2018-02-20T19:41:59.352Z,73.19
2018-02-20T19:44:27.831Z,72.82
2018-02-20T19:46:56.346Z,73.27
2018-02-20T19:49:24.840Z,73.10
2018-02-20T19:51:53.298Z,73.26
2018-02-20T19:54:21.820Z,72.82
2018-02-20T19:56:50.319Z,72.79
2018-02-20T19:59:18.782Z,73.20
2018-02-20T20:01:47.278Z,73.30
2018-02-20T20:04:15.805Z,73.26
2018-02-20T20:06:44.278Z,73.44
2018-02-20T20:09:12.782Z,73.35
2018-02-20T20:11:41.283Z,73.08
2018-02-20T20:14:09.752Z,73.40
2018-02-20T20:16:38.273Z,74.19
2018-02-20T20:19:06.829Z,73.54
2018-02-20T20:21:35.328Z,73.25
2018-02-20T20:24:03.798Z,73.38
2018-02-20T20:26:32.266Z,73.09
2018-02-20T20:29:00.771Z,74.22
2018-02-20T20:31:29.266Z,73.61
2018-02-20T20:33:57.722Z,72.95
2018-02-20T20:36:26.220Z,73.17
2018-02-20T20:38:54.743Z,72.90
2018-02-20T20:41:23.201Z,73.14
2018-02-20T20:43:51.705Z,73.12
2018-02-20T20:46:20.191Z,72.80
2018-02-20T20:48:48.670Z,73.16
2018-02-20T20:51:17.166Z,72.94
2018-02-20T20:53:45.628Z,73.04
2018-02-20T20:56:14.126Z,73.02
2018-02-20T20:58:42.595Z,73.04
2018-02-20T21:01:11.090Z,72.78
2018-02-20T21:03:39.596Z,72.97
2018-02-20T21:06:08.065Z,72.80
2018-02-20T21:08:36.557Z,72.61
2018-02-20T21:11:05.058Z,72.76
2018-02-20T21:13:33.522Z,72.87
2018-02-20T21:16:01.978Z,72.89
2018-02-20T21:18:30.485Z,73.18
2018-02-20T21:20:58.942Z,73.14
2018-02-20T21:23:27.442Z,72.83
2018-02-20T21:25:55.934Z,73.19
2018-02-20T21:28:24.400Z,72.92
2018-02-20T21:30:52.898Z,73.25
2018-02-20T21:33:21.354Z,73.17
2018-02-20T21:35:49.842Z,73.21
2018-02-20T21:38:18.337Z,73.37
2018-02-20T21:40:46.838Z,73.22
2018-02-20T21:43:15.333Z,73.41
2018-02-20T21:45:43.821Z,73.23
2018-02-20T21:48:12.281Z,73.76
2018-02-20T21:50:40.780Z,73.33
2018-02-20T21:53:09.263Z,73.17
2018-02-20T21:55:37.719Z,73.42
2018-02-20T21:58:06.274Z,73.54
2018-02-20T22:00:34.742Z,73.39
2018-02-20T22:03:03.252Z,73.62
2018-02-20T22:05:32.331Z,73.30
2018-02-20T22:08:00.790Z,73.30
2018-02-20T22:10:29.282Z,73.17
2018-02-20T22:12:57.738Z,73.21
2018-02-20T22:15:26.233Z,73.46
2018-02-20T22:17:54.738Z,73.43
2018-02-20T22:20:23.193Z,73.77
2018-02-20T22:22:51.646Z,74.01
2018-02-20T22:25:20.152Z,73.87
2018-02-20T22:27:48.654Z,74.19
2018-02-20T22:30:17.106Z,73.76
2018-02-20T22:32:45.589Z,73.86
2018-02-20T22:35:14.099Z,73.84
2018-02-20T22:37:42.563Z,73.81
2018-02-20T22:40:11.065Z,73.74
2018-02-20T22:42:39.570Z,73.54
2018-02-20T22:45:08.026Z,73.66
2018-02-20T22:47:36.486Z,73.71
2018-02-20T22:50:05.012Z,73.62
2018-02-20T22:52:33.474Z,73.94
2018-02-20T22:55:01.978Z,73.84
2018-02-20T22:57:30.495Z,73.66
2018-02-20T22:59:58.998Z,73.66
2018-02-20T23:02:27.467Z,73.83
2018-02-20T23:04:55.932Z,73.87
2018-02-20T23:07:24.442Z,73.55
2018-02-20T23:09:52.901Z,73.45
2018-02-20T23:12:21.362Z,73.62
2018-02-20T23:14:49.863Z,73.69
2018-02-20T23:17:18.326Z,74.31
2018-02-20T23:19:46.798Z,74.05
2018-02-20T23:22:15.329Z,73.62
2018-02-20T23:24:44.730Z,74.04
2018-02-20T23:27:13.189Z,73.96
2018-02-20T23:29:41.688Z,74.01
2018-02-20T23:32:10.181Z,74.03
2018-02-20T23:34:38.717Z,74.11
2018-02-20T23:37:07.218Z,73.77
2018-02-20T23:39:35.722Z,74.06
2018-02-20T23:42:04.181Z,74.00
2018-02-20T23:44:32.679Z,73.78
2018-02-20T23:47:01.150Z,73.82
2018-02-20T23:49:29.664Z,74.03
2018-02-20T23:51:58.142Z,73.68
2018-02-20T23:54:26.620Z,73.87
2018-02-20T23:56:55.134Z,73.96
2018-02-20T23:59:23.631Z,73.98
